BFL127 PASI-PAWD
Flight info
| Callsign | BFL127 |
|---|---|
| Flight time | 3h 10m |
| Altitude | 10000 |
| Route | BKA V440 YAK V319 JOH |
| Aircraft | DC3/M-SDF/S |
Departure
| Time | 2026-05-05 22:03 |
|---|---|
| Airport | Sitka Rocky Gutierrez Airport (PASI) |
Arrival
| Time | 2026-05-06 01:14 |
|---|---|
| Airport | Seward Airport (PAWD) |
| Time | Latitude | Longitude | Altitude | Speed | Heading |
|---|---|---|---|---|---|
| 2026-05-05 21:56 | 57.04988 | -135.36300 | 31 ft | 0 kts | 321° |
| 2026-05-05 22:00 | 57.04980 | -135.36335 | 31 ft | 10 kts | 256° |
| 2026-05-05 22:01 | 57.05061 | -135.36515 | 32 ft | 26 kts | 316° |
| 2026-05-05 22:01 | 57.05180 | -135.36730 | 32 ft | 22 kts | 316° |
| 2026-05-05 22:01 | 57.05278 | -135.36899 | 33 ft | 17 kts | 320° |
| 2026-05-05 22:01 | 57.05358 | -135.37041 | 33 ft | 15 kts | 310° |
| 2026-05-05 22:02 | 57.05392 | -135.37153 | 34 ft | 3 kts | 276° |
| 2026-05-05 22:02 | 57.05382 | -135.37203 | 34 ft | 6 kts | 227° |
| 2026-05-05 22:02 | 57.05325 | -135.37255 | 34 ft | 11 kts | 161° |
| 2026-05-05 22:02 | 57.05141 | -135.36934 | 35 ft | 63 kts | 136° |
| 2026-05-05 22:03 | 57.04759 | -135.36217 | 135 ft | 85 kts | 134° |
| 2026-05-05 22:03 | 57.04350 | -135.35388 | 403 ft | 90 kts | 137° |
| 2026-05-05 22:03 | 57.03841 | -135.34747 | 645 ft | 89 kts | 169° |
| 2026-05-05 22:03 | 57.03243 | -135.34844 | 916 ft | 87 kts | 208° |
| 2026-05-05 22:04 | 57.02809 | -135.35597 | 1164 ft | 88 kts | 242° |
| 2026-05-05 22:04 | 57.02510 | -135.36582 | 1411 ft | 88 kts | 238° |
| 2026-05-05 22:04 | 57.02202 | -135.37586 | 1636 ft | 93 kts | 237° |
| 2026-05-05 22:04 | 57.01880 | -135.38635 | 1890 ft | 97 kts | 237° |
| 2026-05-05 22:05 | 57.01538 | -135.39752 | 2096 ft | 107 kts | 237° |
| 2026-05-05 22:05 | 57.01283 | -135.40587 | 2200 ft | 115 kts | 238° |
| 2026-05-05 22:05 | 57.00734 | -135.42384 | 2397 ft | 128 kts | 239° |
| 2026-05-05 22:05 | 57.00282 | -135.43855 | 2546 ft | 135 kts | 240° |
| 2026-05-05 22:06 | 56.99811 | -135.45381 | 2688 ft | 139 kts | 240° |
| 2026-05-05 22:06 | 56.99255 | -135.46806 | 2960 ft | 137 kts | 224° |
| 2026-05-05 22:06 | 56.98441 | -135.47674 | 3229 ft | 136 kts | 201° |
| 2026-05-05 22:06 | 56.97553 | -135.48207 | 3479 ft | 133 kts | 202° |
| 2026-05-05 22:07 | 56.96684 | -135.48728 | 3734 ft | 130 kts | 202° |
| 2026-05-05 22:07 | 56.95827 | -135.49240 | 3994 ft | 129 kts | 202° |
| 2026-05-05 22:07 | 56.94975 | -135.49748 | 4247 ft | 129 kts | 201° |
| 2026-05-05 22:07 | 56.94117 | -135.50265 | 4509 ft | 130 kts | 201° |
| 2026-05-05 22:08 | 56.93250 | -135.50775 | 4784 ft | 131 kts | 203° |
| 2026-05-05 22:08 | 56.92380 | -135.51293 | 5042 ft | 132 kts | 202° |
| 2026-05-05 22:08 | 56.91510 | -135.51817 | 5297 ft | 132 kts | 201° |
| 2026-05-05 22:08 | 56.90639 | -135.52337 | 5551 ft | 132 kts | 202° |
| 2026-05-05 22:09 | 56.89796 | -135.52923 | 5810 ft | 129 kts | 218° |
| 2026-05-05 22:09 | 56.89180 | -135.54114 | 6083 ft | 127 kts | 236° |
| 2026-05-05 22:09 | 56.88822 | -135.55555 | 6343 ft | 127 kts | 253° |
| 2026-05-05 22:09 | 56.88742 | -135.57167 | 6600 ft | 129 kts | 269° |
| 2026-05-05 22:10 | 56.88981 | -135.58771 | 6850 ft | 133 kts | 287° |
| 2026-05-05 22:10 | 56.89533 | -135.60177 | 7096 ft | 141 kts | 310° |
| 2026-05-05 22:10 | 56.90319 | -135.61286 | 7342 ft | 143 kts | 315° |
| 2026-05-05 22:10 | 56.91113 | -135.62391 | 7592 ft | 144 kts | 315° |
| 2026-05-05 22:11 | 56.91907 | -135.63502 | 7845 ft | 144 kts | 315° |
| 2026-05-05 22:11 | 56.92703 | -135.64620 | 8099 ft | 144 kts | 315° |
| 2026-05-05 22:11 | 56.93502 | -135.65744 | 8355 ft | 145 kts | 315° |
| 2026-05-05 22:11 | 56.94315 | -135.66892 | 8495 ft | 154 kts | 315° |
| 2026-05-05 22:12 | 56.95204 | -135.68149 | 8500 ft | 167 kts | 316° |
| 2026-05-05 22:12 | 56.95826 | -135.69025 | 8511 ft | 173 kts | 316° |
| 2026-05-05 22:12 | 56.96790 | -135.70381 | 8511 ft | 176 kts | 316° |
| 2026-05-05 22:12 | 56.97762 | -135.71749 | 8511 ft | 177 kts | 316° |
| 2026-05-05 22:13 | 56.98737 | -135.73127 | 8511 ft | 177 kts | 316° |
| 2026-05-05 22:13 | 56.99712 | -135.74504 | 8516 ft | 177 kts | 316° |
| 2026-05-05 22:13 | 57.00684 | -135.75879 | 8512 ft | 176 kts | 317° |
| 2026-05-05 22:13 | 57.01655 | -135.77250 | 8511 ft | 176 kts | 316° |
| 2026-05-05 22:14 | 57.02625 | -135.78623 | 8511 ft | 175 kts | 317° |
| 2026-05-05 22:14 | 57.03586 | -135.79989 | 8511 ft | 174 kts | 316° |
| 2026-05-05 22:14 | 57.04547 | -135.81352 | 8514 ft | 175 kts | 316° |
| 2026-05-05 22:14 | 57.05515 | -135.82723 | 8513 ft | 176 kts | 316° |
| 2026-05-05 22:15 | 57.06486 | -135.84102 | 8514 ft | 177 kts | 316° |
| 2026-05-05 22:15 | 57.07460 | -135.85487 | 8511 ft | 177 kts | 316° |
| 2026-05-05 22:15 | 57.08431 | -135.86867 | 8511 ft | 176 kts | 316° |
| 2026-05-05 22:15 | 57.09400 | -135.88245 | 8508 ft | 176 kts | 316° |
| 2026-05-05 22:16 | 57.10364 | -135.89617 | 8508 ft | 175 kts | 316° |
| 2026-05-05 22:16 | 57.11323 | -135.90985 | 8511 ft | 174 kts | 316° |
| 2026-05-05 22:16 | 57.12281 | -135.92351 | 8510 ft | 174 kts | 316° |
| 2026-05-05 22:16 | 57.13238 | -135.93717 | 8510 ft | 174 kts | 316° |
| 2026-05-05 22:17 | 57.14184 | -135.95067 | 8501 ft | 174 kts | 316° |
| 2026-05-05 22:17 | 57.15139 | -135.96432 | 8506 ft | 174 kts | 316° |
| 2026-05-05 22:17 | 57.16097 | -135.97801 | 8506 ft | 174 kts | 316° |
| 2026-05-05 22:17 | 57.17054 | -135.99170 | 8506 ft | 174 kts | 316° |
| 2026-05-05 22:18 | 57.18013 | -136.00542 | 8503 ft | 174 kts | 316° |
| 2026-05-05 22:18 | 57.18969 | -136.01912 | 8503 ft | 174 kts | 316° |
| 2026-05-05 22:18 | 57.19926 | -136.03283 | 8503 ft | 174 kts | 316° |
| 2026-05-05 22:18 | 57.20881 | -136.04654 | 8503 ft | 174 kts | 316° |
| 2026-05-05 22:19 | 57.21836 | -136.06025 | 8506 ft | 174 kts | 316° |
| 2026-05-05 22:19 | 57.22790 | -136.07394 | 8508 ft | 174 kts | 316° |
| 2026-05-05 22:19 | 57.23745 | -136.08765 | 8508 ft | 174 kts | 316° |
| 2026-05-05 22:19 | 57.24695 | -136.10133 | 8508 ft | 173 kts | 316° |
| 2026-05-05 22:20 | 57.25643 | -136.11498 | 8499 ft | 173 kts | 316° |
| 2026-05-05 22:20 | 57.26590 | -136.12863 | 8496 ft | 172 kts | 316° |
| 2026-05-05 22:20 | 57.27524 | -136.14208 | 8502 ft | 172 kts | 316° |
| 2026-05-05 22:20 | 57.28470 | -136.15572 | 8502 ft | 172 kts | 316° |
| 2026-05-05 22:21 | 57.29413 | -136.16933 | 8496 ft | 172 kts | 316° |
| 2026-05-05 22:21 | 57.30355 | -136.18294 | 8501 ft | 172 kts | 316° |
| 2026-05-05 22:21 | 57.31299 | -136.19659 | 8495 ft | 172 kts | 316° |
| 2026-05-05 22:21 | 57.32242 | -136.21021 | 8502 ft | 172 kts | 316° |
| 2026-05-05 22:22 | 57.33185 | -136.22386 | 8498 ft | 172 kts | 316° |
| 2026-05-05 22:22 | 57.34129 | -136.23752 | 8505 ft | 172 kts | 316° |
| 2026-05-05 22:22 | 57.35074 | -136.25122 | 8505 ft | 173 kts | 316° |
| 2026-05-05 22:22 | 57.36018 | -136.26491 | 8505 ft | 172 kts | 316° |
| 2026-05-05 22:23 | 57.36962 | -136.27860 | 8502 ft | 172 kts | 316° |
| 2026-05-05 22:23 | 57.37908 | -136.29235 | 8504 ft | 173 kts | 316° |
| 2026-05-05 22:23 | 57.38861 | -136.30618 | 8503 ft | 175 kts | 316° |
| 2026-05-05 22:23 | 57.39819 | -136.32010 | 8492 ft | 175 kts | 316° |
| 2026-05-05 22:24 | 57.40777 | -136.33402 | 8499 ft | 175 kts | 316° |
| 2026-05-05 22:24 | 57.41718 | -136.34775 | 8499 ft | 175 kts | 316° |
| 2026-05-05 22:24 | 57.42674 | -136.36168 | 8498 ft | 175 kts | 316° |
| 2026-05-05 22:24 | 57.43627 | -136.37558 | 8498 ft | 174 kts | 316° |
| 2026-05-05 22:25 | 57.44577 | -136.38946 | 8500 ft | 174 kts | 316° |
| 2026-05-05 22:25 | 57.45526 | -136.40330 | 8493 ft | 173 kts | 316° |
| 2026-05-05 22:25 | 57.46473 | -136.41715 | 8496 ft | 173 kts | 316° |
| 2026-05-05 22:25 | 57.47420 | -136.43101 | 8497 ft | 173 kts | 316° |
| 2026-05-05 22:26 | 57.48367 | -136.44485 | 8493 ft | 173 kts | 316° |
| 2026-05-05 22:26 | 57.49312 | -136.45868 | 8494 ft | 173 kts | 316° |
| 2026-05-05 22:26 | 57.50257 | -136.47253 | 8493 ft | 173 kts | 316° |
| 2026-05-05 22:26 | 57.51200 | -136.48636 | 8493 ft | 172 kts | 316° |
| 2026-05-05 22:27 | 57.52142 | -136.50018 | 8497 ft | 173 kts | 316° |
| 2026-05-05 22:27 | 57.53086 | -136.51403 | 8496 ft | 172 kts | 316° |
| 2026-05-05 22:27 | 57.54016 | -136.52770 | 8496 ft | 172 kts | 316° |
| 2026-05-05 22:27 | 57.54956 | -136.54153 | 8496 ft | 172 kts | 316° |
| 2026-05-05 22:28 | 57.55897 | -136.55537 | 8491 ft | 172 kts | 316° |
| 2026-05-05 22:28 | 57.56838 | -136.56922 | 8490 ft | 172 kts | 316° |
| 2026-05-05 22:28 | 57.57777 | -136.58308 | 8490 ft | 172 kts | 315° |
| 2026-05-05 22:28 | 57.58718 | -136.59696 | 8493 ft | 172 kts | 316° |
| 2026-05-05 22:29 | 57.59659 | -136.61087 | 8490 ft | 172 kts | 315° |
| 2026-05-05 22:29 | 57.60599 | -136.62470 | 8491 ft | 172 kts | 316° |
| 2026-05-05 22:29 | 57.61543 | -136.63856 | 8490 ft | 172 kts | 316° |
| 2026-05-05 22:29 | 57.62483 | -136.65246 | 8490 ft | 172 kts | 315° |
| 2026-05-05 22:30 | 57.63422 | -136.66638 | 8493 ft | 172 kts | 315° |
| 2026-05-05 22:30 | 57.64359 | -136.68027 | 8487 ft | 172 kts | 315° |
| 2026-05-05 22:30 | 57.65297 | -136.69417 | 8489 ft | 172 kts | 315° |
| 2026-05-05 22:30 | 57.66239 | -136.70813 | 8490 ft | 174 kts | 315° |
| 2026-05-05 22:31 | 57.67181 | -136.72211 | 8490 ft | 176 kts | 316° |
| 2026-05-05 22:31 | 57.68140 | -136.73633 | 8487 ft | 176 kts | 316° |
| 2026-05-05 22:31 | 57.69095 | -136.75051 | 8500 ft | 175 kts | 315° |
| 2026-05-05 22:31 | 57.70049 | -136.76466 | 8487 ft | 175 kts | 315° |
| 2026-05-05 22:32 | 57.70996 | -136.77879 | 8487 ft | 174 kts | 315° |
| 2026-05-05 22:32 | 57.71942 | -136.79288 | 8487 ft | 174 kts | 315° |
| 2026-05-05 22:32 | 57.72885 | -136.80692 | 8487 ft | 173 kts | 315° |
| 2026-05-05 22:32 | 57.73829 | -136.82099 | 8481 ft | 173 kts | 315° |
| 2026-05-05 22:33 | 57.74773 | -136.83507 | 8485 ft | 173 kts | 315° |
| 2026-05-05 22:33 | 57.75715 | -136.84913 | 8484 ft | 173 kts | 315° |
| 2026-05-05 22:33 | 57.76659 | -136.86322 | 8485 ft | 173 kts | 315° |
| 2026-05-05 22:33 | 57.77601 | -136.87730 | 8485 ft | 173 kts | 315° |
| 2026-05-05 22:34 | 57.78545 | -136.89142 | 8483 ft | 174 kts | 315° |
| 2026-05-05 22:34 | 57.79493 | -136.90561 | 8482 ft | 174 kts | 315° |
| 2026-05-05 22:34 | 57.80441 | -136.91979 | 8483 ft | 174 kts | 315° |
| 2026-05-05 22:34 | 57.81386 | -136.93395 | 8482 ft | 174 kts | 315° |
| 2026-05-05 22:35 | 57.82331 | -136.94813 | 8481 ft | 174 kts | 315° |
| 2026-05-05 22:35 | 57.83275 | -136.96229 | 8479 ft | 173 kts | 315° |
| 2026-05-05 22:35 | 57.84204 | -136.97624 | 8478 ft | 173 kts | 315° |
| 2026-05-05 22:35 | 57.85155 | -136.99053 | 8478 ft | 172 kts | 315° |
| 2026-05-05 22:36 | 57.86091 | -137.00461 | 8479 ft | 173 kts | 315° |
| 2026-05-05 22:36 | 57.87018 | -137.01858 | 8482 ft | 174 kts | 315° |
| 2026-05-05 22:36 | 57.87964 | -137.03280 | 8481 ft | 174 kts | 315° |
| 2026-05-05 22:36 | 57.88906 | -137.04703 | 8479 ft | 173 kts | 315° |
| 2026-05-05 22:37 | 57.89849 | -137.06123 | 8476 ft | 173 kts | 315° |
| 2026-05-05 22:37 | 57.90788 | -137.07538 | 8476 ft | 173 kts | 315° |
| 2026-05-05 22:37 | 57.91727 | -137.08957 | 8476 ft | 173 kts | 315° |
| 2026-05-05 22:37 | 57.92669 | -137.10380 | 8473 ft | 174 kts | 315° |
| 2026-05-05 22:38 | 57.93612 | -137.11806 | 8472 ft | 174 kts | 315° |
| 2026-05-05 22:38 | 57.94558 | -137.13237 | 8473 ft | 175 kts | 315° |
| 2026-05-05 22:38 | 57.95506 | -137.14673 | 8473 ft | 175 kts | 315° |
| 2026-05-05 22:38 | 57.96456 | -137.16113 | 8473 ft | 176 kts | 315° |
| 2026-05-05 22:39 | 57.97398 | -137.17540 | 8473 ft | 176 kts | 315° |
| 2026-05-05 22:39 | 57.98348 | -137.18981 | 8472 ft | 175 kts | 315° |
| 2026-05-05 22:39 | 57.99294 | -137.20417 | 8471 ft | 174 kts | 315° |
| 2026-05-05 22:39 | 58.00233 | -137.21844 | 8471 ft | 173 kts | 315° |
| 2026-05-05 22:40 | 58.01171 | -137.23272 | 8474 ft | 173 kts | 315° |
| 2026-05-05 22:40 | 58.02109 | -137.24700 | 8468 ft | 173 kts | 315° |
| 2026-05-05 22:40 | 58.03046 | -137.26127 | 8468 ft | 173 kts | 315° |
| 2026-05-05 22:40 | 58.03983 | -137.27554 | 8469 ft | 173 kts | 315° |
| 2026-05-05 22:41 | 58.04917 | -137.28979 | 8468 ft | 172 kts | 315° |
| 2026-05-05 22:41 | 58.05849 | -137.30400 | 8467 ft | 172 kts | 315° |
| 2026-05-05 22:41 | 58.06779 | -137.31819 | 8468 ft | 172 kts | 315° |
| 2026-05-05 22:41 | 58.07707 | -137.33239 | 8467 ft | 172 kts | 315° |
| 2026-05-05 22:42 | 58.08636 | -137.34660 | 8467 ft | 172 kts | 315° |
| 2026-05-05 22:42 | 58.09566 | -137.36081 | 8467 ft | 172 kts | 315° |
| 2026-05-05 22:42 | 58.10497 | -137.37505 | 8468 ft | 172 kts | 314° |
| 2026-05-05 22:42 | 58.11424 | -137.38927 | 8467 ft | 171 kts | 314° |
| 2026-05-05 22:43 | 58.12347 | -137.40347 | 8464 ft | 171 kts | 314° |
| 2026-05-05 22:43 | 58.13260 | -137.41745 | 8465 ft | 171 kts | 315° |
| 2026-05-05 22:43 | 58.14182 | -137.43156 | 8464 ft | 170 kts | 314° |
| 2026-05-05 22:43 | 58.15097 | -137.44564 | 8464 ft | 170 kts | 314° |
| 2026-05-05 22:44 | 58.16016 | -137.45977 | 8469 ft | 170 kts | 314° |
| 2026-05-05 22:44 | 58.16934 | -137.47391 | 8469 ft | 170 kts | 314° |
| 2026-05-05 22:44 | 58.17852 | -137.48799 | 8468 ft | 169 kts | 314° |
| 2026-05-05 22:44 | 58.18761 | -137.50212 | 8468 ft | 169 kts | 315° |
| 2026-05-05 22:45 | 58.19677 | -137.51615 | 8470 ft | 169 kts | 314° |
| 2026-05-05 22:45 | 58.20588 | -137.53017 | 8467 ft | 168 kts | 314° |
| 2026-05-05 22:45 | 58.21496 | -137.54419 | 8465 ft | 168 kts | 314° |
| 2026-05-05 22:45 | 58.22409 | -137.55800 | 8465 ft | 167 kts | 315° |
| 2026-05-05 22:46 | 58.23303 | -137.57202 | 8466 ft | 166 kts | 313° |
| 2026-05-05 22:46 | 58.24195 | -137.58606 | 8464 ft | 167 kts | 314° |
| 2026-05-05 22:46 | 58.25091 | -137.59991 | 8463 ft | 166 kts | 314° |
| 2026-05-05 22:46 | 58.25984 | -137.61369 | 8463 ft | 165 kts | 315° |
| 2026-05-05 22:47 | 58.26875 | -137.62746 | 8462 ft | 165 kts | 314° |
| 2026-05-05 22:47 | 58.27752 | -137.64100 | 8462 ft | 165 kts | 315° |
| 2026-05-05 22:47 | 58.28638 | -137.65472 | 8461 ft | 164 kts | 314° |
| 2026-05-05 22:47 | 58.29520 | -137.66845 | 8455 ft | 163 kts | 314° |
| 2026-05-05 22:48 | 58.30400 | -137.68216 | 8457 ft | 163 kts | 314° |
| 2026-05-05 22:48 | 58.31277 | -137.69579 | 8456 ft | 163 kts | 314° |
| 2026-05-05 22:48 | 58.32150 | -137.70938 | 8455 ft | 162 kts | 314° |
| 2026-05-05 22:48 | 58.33021 | -137.72294 | 8455 ft | 161 kts | 314° |
| 2026-05-05 22:49 | 58.33888 | -137.73644 | 8454 ft | 161 kts | 314° |
| 2026-05-05 22:49 | 58.34753 | -137.74991 | 8453 ft | 160 kts | 314° |
| 2026-05-05 22:49 | 58.35614 | -137.76335 | 8454 ft | 160 kts | 314° |
| 2026-05-05 22:49 | 58.36477 | -137.77682 | 8453 ft | 160 kts | 314° |
| 2026-05-05 22:50 | 58.37342 | -137.79032 | 8454 ft | 161 kts | 314° |
| 2026-05-05 22:50 | 58.38207 | -137.80386 | 8459 ft | 161 kts | 314° |
| 2026-05-05 22:50 | 58.39081 | -137.81744 | 8460 ft | 163 kts | 314° |
| 2026-05-05 22:50 | 58.39959 | -137.83128 | 8465 ft | 164 kts | 314° |
| 2026-05-05 22:51 | 58.40837 | -137.84504 | 8459 ft | 163 kts | 314° |
| 2026-05-05 22:51 | 58.41712 | -137.85870 | 8457 ft | 162 kts | 314° |
| 2026-05-05 22:51 | 58.42567 | -137.87212 | 8455 ft | 161 kts | 314° |
| 2026-05-05 22:51 | 58.43427 | -137.88558 | 8453 ft | 159 kts | 314° |
| 2026-05-05 22:52 | 58.44286 | -137.89881 | 8457 ft | 158 kts | 312° |
| 2026-05-05 22:52 | 58.45123 | -137.91234 | 8455 ft | 157 kts | 313° |
| 2026-05-05 22:52 | 58.45963 | -137.92556 | 8453 ft | 156 kts | 313° |
| 2026-05-05 22:52 | 58.46799 | -137.93874 | 8451 ft | 155 kts | 314° |
| 2026-05-05 22:53 | 58.47635 | -137.95172 | 8451 ft | 155 kts | 314° |
| 2026-05-05 22:53 | 58.48467 | -137.96479 | 8446 ft | 155 kts | 314° |
| 2026-05-05 22:53 | 58.49296 | -137.97789 | 8446 ft | 155 kts | 314° |
| 2026-05-05 22:53 | 58.50125 | -137.99098 | 8447 ft | 155 kts | 314° |
| 2026-05-05 22:54 | 58.50955 | -138.00407 | 8443 ft | 154 kts | 313° |
| 2026-05-05 22:54 | 58.51782 | -138.01714 | 8443 ft | 154 kts | 313° |
| 2026-05-05 22:54 | 58.52609 | -138.03023 | 8444 ft | 154 kts | 314° |
| 2026-05-05 22:54 | 58.53437 | -138.04329 | 8445 ft | 154 kts | 314° |
| 2026-05-05 22:55 | 58.54264 | -138.05638 | 8447 ft | 154 kts | 314° |
| 2026-05-05 22:55 | 58.55089 | -138.06946 | 8447 ft | 154 kts | 313° |
| 2026-05-05 22:55 | 58.55915 | -138.08254 | 8446 ft | 154 kts | 314° |
| 2026-05-05 22:55 | 58.56741 | -138.09562 | 8443 ft | 154 kts | 314° |
| 2026-05-05 22:56 | 58.57554 | -138.10852 | 8437 ft | 154 kts | 314° |
| 2026-05-05 22:56 | 58.58377 | -138.12160 | 8437 ft | 154 kts | 314° |
| 2026-05-05 22:56 | 58.59205 | -138.13474 | 8440 ft | 155 kts | 314° |
| 2026-05-05 22:56 | 58.60045 | -138.14766 | 8436 ft | 155 kts | 313° |
| 2026-05-05 22:57 | 58.60857 | -138.16090 | 8436 ft | 152 kts | 313° |
| 2026-05-05 22:57 | 58.61661 | -138.17394 | 8441 ft | 151 kts | 313° |
| 2026-05-05 22:57 | 58.62469 | -138.18679 | 8442 ft | 151 kts | 313° |
| 2026-05-05 22:57 | 58.63280 | -138.19956 | 8436 ft | 150 kts | 313° |
| 2026-05-05 22:58 | 58.64077 | -138.21227 | 8438 ft | 148 kts | 313° |
| 2026-05-05 22:58 | 58.64865 | -138.22482 | 8440 ft | 146 kts | 313° |
| 2026-05-05 22:58 | 58.65646 | -138.23727 | 8439 ft | 145 kts | 313° |
| 2026-05-05 22:58 | 58.66423 | -138.24969 | 8439 ft | 145 kts | 313° |
| 2026-05-05 22:59 | 58.67195 | -138.26204 | 8434 ft | 145 kts | 313° |
| 2026-05-05 22:59 | 58.67971 | -138.27446 | 8437 ft | 145 kts | 313° |
| 2026-05-05 22:59 | 58.68750 | -138.28690 | 8436 ft | 147 kts | 313° |
| 2026-05-05 22:59 | 58.69547 | -138.29965 | 8443 ft | 151 kts | 313° |
| 2026-05-05 23:00 | 58.70915 | -138.32163 | 8443 ft | 156 kts | 314° |
| 2026-05-05 23:00 | 58.72027 | -138.33945 | 8447 ft | 158 kts | 314° |
| 2026-05-05 23:00 | 58.72878 | -138.35308 | 8446 ft | 159 kts | 314° |
| 2026-05-05 23:01 | 58.73729 | -138.36674 | 8448 ft | 160 kts | 313° |
| 2026-05-05 23:01 | 58.74583 | -138.38060 | 8447 ft | 161 kts | 313° |
| 2026-05-05 23:01 | 58.75449 | -138.39430 | 8449 ft | 160 kts | 314° |
| 2026-05-05 23:01 | 58.76304 | -138.40809 | 8447 ft | 160 kts | 314° |
| 2026-05-05 23:02 | 58.77160 | -138.42190 | 8447 ft | 160 kts | 314° |
| 2026-05-05 23:02 | 58.77727 | -138.43103 | 8446 ft | 161 kts | 313° |
| 2026-05-05 23:02 | 58.78584 | -138.44487 | 8446 ft | 161 kts | 314° |
| 2026-05-05 23:02 | 58.79440 | -138.45869 | 8447 ft | 160 kts | 314° |
| 2026-05-05 23:03 | 58.80297 | -138.47251 | 8447 ft | 160 kts | 314° |
| 2026-05-05 23:03 | 58.81156 | -138.48633 | 8455 ft | 161 kts | 314° |
| 2026-05-05 23:03 | 58.82010 | -138.50018 | 8455 ft | 160 kts | 314° |
| 2026-05-05 23:03 | 58.82862 | -138.51398 | 8454 ft | 160 kts | 314° |
| 2026-05-05 23:04 | 58.83718 | -138.52785 | 8452 ft | 161 kts | 314° |
| 2026-05-05 23:04 | 58.84575 | -138.54169 | 8455 ft | 160 kts | 314° |
| 2026-05-05 23:04 | 58.85432 | -138.55557 | 8450 ft | 161 kts | 313° |
| 2026-05-05 23:04 | 58.86291 | -138.56951 | 8449 ft | 161 kts | 314° |
| 2026-05-05 23:05 | 58.87151 | -138.58347 | 8445 ft | 161 kts | 314° |
| 2026-05-05 23:05 | 58.88009 | -138.59737 | 8443 ft | 161 kts | 314° |
| 2026-05-05 23:05 | 58.88868 | -138.61133 | 8444 ft | 161 kts | 313° |
| 2026-05-05 23:05 | 58.89726 | -138.62531 | 8445 ft | 161 kts | 313° |
| 2026-05-05 23:06 | 58.90584 | -138.63928 | 8449 ft | 161 kts | 313° |
| 2026-05-05 23:06 | 58.91436 | -138.65335 | 8451 ft | 162 kts | 314° |
| 2026-05-05 23:06 | 58.92294 | -138.66707 | 8448 ft | 162 kts | 314° |
| 2026-05-05 23:06 | 58.93165 | -138.68126 | 8448 ft | 161 kts | 313° |
| 2026-05-05 23:07 | 58.94011 | -138.69509 | 8449 ft | 161 kts | 313° |
| 2026-05-05 23:07 | 58.94878 | -138.70926 | 8437 ft | 161 kts | 313° |
| 2026-05-05 23:07 | 58.95722 | -138.72306 | 8441 ft | 161 kts | 313° |
| 2026-05-05 23:07 | 58.96575 | -138.73703 | 8443 ft | 160 kts | 314° |
| 2026-05-05 23:08 | 58.97428 | -138.75099 | 8444 ft | 161 kts | 314° |
| 2026-05-05 23:08 | 58.98287 | -138.76502 | 8443 ft | 162 kts | 314° |
| 2026-05-05 23:08 | 58.99147 | -138.77910 | 8443 ft | 161 kts | 313° |
| 2026-05-05 23:08 | 59.00005 | -138.79316 | 8443 ft | 162 kts | 313° |
| 2026-05-05 23:09 | 59.00863 | -138.80723 | 8443 ft | 162 kts | 313° |
| 2026-05-05 23:09 | 59.01727 | -138.82143 | 8440 ft | 162 kts | 313° |
| 2026-05-05 23:09 | 59.02586 | -138.83554 | 8440 ft | 161 kts | 313° |
| 2026-05-05 23:09 | 59.03443 | -138.84962 | 8439 ft | 162 kts | 313° |
| 2026-05-05 23:10 | 59.04301 | -138.86374 | 8433 ft | 162 kts | 313° |
| 2026-05-05 23:10 | 59.05160 | -138.87788 | 8432 ft | 162 kts | 313° |
| 2026-05-05 23:10 | 59.06020 | -138.89203 | 8435 ft | 162 kts | 313° |
| 2026-05-05 23:10 | 59.06880 | -138.90618 | 8432 ft | 162 kts | 313° |
| 2026-05-05 23:11 | 59.07733 | -138.92039 | 8436 ft | 162 kts | 313° |
| 2026-05-05 23:11 | 59.08593 | -138.93451 | 8436 ft | 162 kts | 313° |
| 2026-05-05 23:11 | 59.09456 | -138.94870 | 8439 ft | 163 kts | 314° |
| 2026-05-05 23:11 | 59.10322 | -138.96298 | 8441 ft | 163 kts | 313° |
| 2026-05-05 23:12 | 59.11189 | -138.97741 | 8440 ft | 164 kts | 314° |
| 2026-05-05 23:12 | 59.12067 | -138.99188 | 8433 ft | 167 kts | 315° |
| 2026-05-05 23:12 | 59.12951 | -139.00648 | 8435 ft | 167 kts | 313° |
| 2026-05-05 23:12 | 59.13834 | -139.02123 | 8422 ft | 167 kts | 313° |
| 2026-05-05 23:13 | 59.14711 | -139.03574 | 8419 ft | 165 kts | 313° |
| 2026-05-05 23:13 | 59.15581 | -139.05019 | 8418 ft | 164 kts | 313° |
| 2026-05-05 23:13 | 59.16447 | -139.06461 | 8418 ft | 164 kts | 313° |
| 2026-05-05 23:13 | 59.17313 | -139.07900 | 8418 ft | 164 kts | 313° |
| 2026-05-05 23:14 | 59.18180 | -139.09340 | 8420 ft | 164 kts | 313° |
| 2026-05-05 23:14 | 59.19033 | -139.10760 | 8419 ft | 164 kts | 313° |
| 2026-05-05 23:14 | 59.19898 | -139.12200 | 8420 ft | 163 kts | 313° |
| 2026-05-05 23:14 | 59.20762 | -139.13640 | 8419 ft | 163 kts | 313° |
| 2026-05-05 23:15 | 59.21626 | -139.15080 | 8434 ft | 164 kts | 313° |
| 2026-05-05 23:15 | 59.22495 | -139.16532 | 8434 ft | 165 kts | 313° |
| 2026-05-05 23:15 | 59.23371 | -139.17998 | 8424 ft | 166 kts | 313° |
| 2026-05-05 23:15 | 59.24248 | -139.19462 | 8424 ft | 165 kts | 313° |
| 2026-05-05 23:16 | 59.25121 | -139.20918 | 8422 ft | 165 kts | 313° |
| 2026-05-05 23:16 | 59.25992 | -139.22376 | 8423 ft | 164 kts | 313° |
| 2026-05-05 23:16 | 59.26861 | -139.23832 | 8423 ft | 165 kts | 313° |
| 2026-05-05 23:16 | 59.27731 | -139.25291 | 8422 ft | 165 kts | 313° |
| 2026-05-05 23:17 | 59.28604 | -139.26756 | 8423 ft | 165 kts | 313° |
| 2026-05-05 23:17 | 59.29478 | -139.28223 | 8423 ft | 166 kts | 313° |
| 2026-05-05 23:17 | 59.30354 | -139.29694 | 8424 ft | 166 kts | 313° |
| 2026-05-05 23:17 | 59.31232 | -139.31168 | 8424 ft | 167 kts | 313° |
| 2026-05-05 23:18 | 59.32113 | -139.32649 | 8435 ft | 167 kts | 314° |
| 2026-05-05 23:18 | 59.32999 | -139.34144 | 8428 ft | 168 kts | 313° |
| 2026-05-05 23:18 | 59.33889 | -139.35639 | 8428 ft | 169 kts | 313° |
| 2026-05-05 23:18 | 59.34781 | -139.37143 | 8429 ft | 169 kts | 314° |
| 2026-05-05 23:19 | 59.35678 | -139.38655 | 8426 ft | 170 kts | 314° |
| 2026-05-05 23:19 | 59.36574 | -139.40170 | 8428 ft | 170 kts | 314° |
| 2026-05-05 23:19 | 59.37475 | -139.41692 | 8429 ft | 171 kts | 313° |
| 2026-05-05 23:19 | 59.38377 | -139.43215 | 8427 ft | 171 kts | 314° |
| 2026-05-05 23:20 | 59.39278 | -139.44736 | 8424 ft | 170 kts | 313° |
| 2026-05-05 23:20 | 59.40177 | -139.46257 | 8428 ft | 170 kts | 314° |
| 2026-05-05 23:20 | 59.41077 | -139.47778 | 8429 ft | 172 kts | 314° |
| 2026-05-05 23:20 | 59.41974 | -139.49289 | 8429 ft | 172 kts | 314° |
| 2026-05-05 23:21 | 59.42879 | -139.50839 | 8428 ft | 172 kts | 313° |
| 2026-05-05 23:21 | 59.43780 | -139.52380 | 8428 ft | 172 kts | 314° |
| 2026-05-05 23:21 | 59.44685 | -139.53913 | 8427 ft | 171 kts | 313° |
| 2026-05-05 23:21 | 59.45585 | -139.55436 | 8430 ft | 170 kts | 314° |
| 2026-05-05 23:22 | 59.46481 | -139.56941 | 8422 ft | 170 kts | 311° |
| 2026-05-05 23:22 | 59.47373 | -139.58458 | 8425 ft | 169 kts | 313° |
| 2026-05-05 23:22 | 59.48253 | -139.59997 | 8425 ft | 169 kts | 313° |
| 2026-05-05 23:22 | 59.49138 | -139.61516 | 8423 ft | 169 kts | 313° |
| 2026-05-05 23:23 | 59.50029 | -139.63025 | 8423 ft | 169 kts | 314° |
| 2026-05-05 23:23 | 59.50871 | -139.64581 | 8419 ft | 165 kts | 301° |
| 2026-05-05 23:23 | 59.51372 | -139.66523 | 8420 ft | 158 kts | 282° |
| 2026-05-05 23:23 | 59.51728 | -139.68589 | 8423 ft | 159 kts | 282° |
| 2026-05-05 23:24 | 59.52083 | -139.70651 | 8416 ft | 159 kts | 282° |
| 2026-05-05 23:24 | 59.52431 | -139.72716 | 8414 ft | 159 kts | 282° |
| 2026-05-05 23:24 | 59.52779 | -139.74770 | 8412 ft | 158 kts | 282° |
| 2026-05-05 23:24 | 59.53126 | -139.76811 | 8426 ft | 157 kts | 282° |
| 2026-05-05 23:25 | 59.53471 | -139.78865 | 8425 ft | 159 kts | 282° |
| 2026-05-05 23:25 | 59.53821 | -139.80931 | 8424 ft | 159 kts | 282° |
| 2026-05-05 23:25 | 59.54174 | -139.83010 | 8427 ft | 160 kts | 282° |
| 2026-05-05 23:25 | 59.54530 | -139.85098 | 8423 ft | 161 kts | 283° |
| 2026-05-05 23:26 | 59.54882 | -139.87191 | 8421 ft | 161 kts | 282° |
| 2026-05-05 23:26 | 59.55229 | -139.89277 | 8418 ft | 160 kts | 282° |
| 2026-05-05 23:26 | 59.55578 | -139.91357 | 8416 ft | 159 kts | 282° |
| 2026-05-05 23:26 | 59.55926 | -139.93423 | 8416 ft | 159 kts | 282° |
| 2026-05-05 23:27 | 59.56275 | -139.95496 | 8415 ft | 159 kts | 282° |
| 2026-05-05 23:27 | 59.56619 | -139.97548 | 8415 ft | 158 kts | 282° |
| 2026-05-05 23:27 | 59.56960 | -139.99582 | 8415 ft | 158 kts | 282° |
| 2026-05-05 23:27 | 59.57312 | -140.01684 | 8417 ft | 158 kts | 281° |
| 2026-05-05 23:28 | 59.57657 | -140.03749 | 8420 ft | 159 kts | 283° |
| 2026-05-05 23:28 | 59.58005 | -140.05825 | 8419 ft | 160 kts | 282° |
| 2026-05-05 23:28 | 59.58353 | -140.07919 | 8419 ft | 161 kts | 282° |
| 2026-05-05 23:28 | 59.58696 | -140.09994 | 8419 ft | 161 kts | 282° |
| 2026-05-05 23:29 | 59.59047 | -140.12106 | 8420 ft | 162 kts | 282° |
| 2026-05-05 23:29 | 59.59397 | -140.14227 | 8422 ft | 162 kts | 282° |
| 2026-05-05 23:29 | 59.59752 | -140.16340 | 8414 ft | 162 kts | 282° |
| 2026-05-05 23:29 | 59.60103 | -140.18443 | 8416 ft | 161 kts | 282° |
| 2026-05-05 23:30 | 59.60451 | -140.20543 | 8400 ft | 160 kts | 282° |
| 2026-05-05 23:30 | 59.60796 | -140.22633 | 8401 ft | 160 kts | 282° |
| 2026-05-05 23:30 | 59.61138 | -140.24712 | 8402 ft | 159 kts | 282° |
| 2026-05-05 23:30 | 59.61482 | -140.26790 | 8403 ft | 159 kts | 282° |
| 2026-05-05 23:31 | 59.61823 | -140.28862 | 8402 ft | 159 kts | 281° |
| 2026-05-05 23:31 | 59.62163 | -140.30940 | 8405 ft | 159 kts | 282° |
| 2026-05-05 23:31 | 59.62504 | -140.33002 | 8400 ft | 159 kts | 281° |
| 2026-05-05 23:31 | 59.62846 | -140.35080 | 8402 ft | 159 kts | 282° |
| 2026-05-05 23:32 | 59.63186 | -140.37162 | 8401 ft | 159 kts | 282° |
| 2026-05-05 23:32 | 59.63528 | -140.39247 | 8404 ft | 160 kts | 282° |
| 2026-05-05 23:32 | 59.63870 | -140.41338 | 8414 ft | 161 kts | 281° |
| 2026-05-05 23:32 | 59.64212 | -140.43455 | 8408 ft | 163 kts | 281° |
| 2026-05-05 23:33 | 59.64565 | -140.45587 | 8406 ft | 164 kts | 282° |
| 2026-05-05 23:33 | 59.64919 | -140.47746 | 8410 ft | 165 kts | 281° |
| 2026-05-05 23:33 | 59.65272 | -140.49898 | 8410 ft | 167 kts | 281° |
| 2026-05-05 23:33 | 59.65624 | -140.52089 | 8412 ft | 168 kts | 281° |
| 2026-05-05 23:34 | 59.65978 | -140.54292 | 8408 ft | 168 kts | 281° |
| 2026-05-05 23:34 | 59.66335 | -140.56505 | 8408 ft | 169 kts | 282° |
| 2026-05-05 23:34 | 59.66700 | -140.58709 | 8409 ft | 169 kts | 281° |
| 2026-05-05 23:34 | 59.67055 | -140.60913 | 8402 ft | 168 kts | 282° |
| 2026-05-05 23:35 | 59.67410 | -140.63109 | 8405 ft | 167 kts | 282° |
| 2026-05-05 23:35 | 59.67765 | -140.65302 | 8403 ft | 167 kts | 281° |
| 2026-05-05 23:35 | 59.68118 | -140.67490 | 8401 ft | 167 kts | 282° |
| 2026-05-05 23:35 | 59.68473 | -140.69682 | 8401 ft | 167 kts | 282° |
| 2026-05-05 23:36 | 59.68822 | -140.71877 | 8404 ft | 167 kts | 281° |
| 2026-05-05 23:36 | 59.69172 | -140.74076 | 8401 ft | 167 kts | 282° |
| 2026-05-05 23:36 | 59.69529 | -140.76269 | 8403 ft | 167 kts | 280° |
| 2026-05-05 23:36 | 59.69877 | -140.78467 | 8403 ft | 167 kts | 281° |
| 2026-05-05 23:37 | 59.70226 | -140.80625 | 8403 ft | 167 kts | 281° |
| 2026-05-05 23:37 | 59.70579 | -140.82837 | 8402 ft | 166 kts | 281° |
| 2026-05-05 23:37 | 59.70925 | -140.84985 | 8401 ft | 166 kts | 281° |
| 2026-05-05 23:37 | 59.71268 | -140.87159 | 8400 ft | 165 kts | 281° |
| 2026-05-05 23:38 | 59.71611 | -140.89326 | 8401 ft | 165 kts | 281° |
| 2026-05-05 23:38 | 59.71955 | -140.91484 | 8399 ft | 163 kts | 281° |
| 2026-05-05 23:38 | 59.72296 | -140.93624 | 8392 ft | 162 kts | 281° |
| 2026-05-05 23:38 | 59.72642 | -140.95744 | 8394 ft | 161 kts | 283° |
| 2026-05-05 23:39 | 59.72971 | -140.97860 | 8392 ft | 160 kts | 281° |
| 2026-05-05 23:39 | 59.73297 | -140.99972 | 8391 ft | 160 kts | 282° |
| 2026-05-05 23:39 | 59.73630 | -141.02074 | 8391 ft | 160 kts | 282° |
| 2026-05-05 23:39 | 59.73964 | -141.04179 | 8392 ft | 160 kts | 282° |
| 2026-05-05 23:40 | 59.74297 | -141.06284 | 8393 ft | 161 kts | 281° |
| 2026-05-05 23:40 | 59.74633 | -141.08422 | 8389 ft | 163 kts | 281° |
| 2026-05-05 23:40 | 59.74971 | -141.10569 | 8392 ft | 164 kts | 281° |
| 2026-05-05 23:40 | 59.75310 | -141.12724 | 8392 ft | 164 kts | 281° |
| 2026-05-05 23:41 | 59.75650 | -141.14890 | 8396 ft | 165 kts | 281° |
| 2026-05-05 23:41 | 59.75991 | -141.17058 | 8392 ft | 165 kts | 281° |
| 2026-05-05 23:41 | 59.76331 | -141.19236 | 8394 ft | 165 kts | 281° |
| 2026-05-05 23:41 | 59.76670 | -141.21406 | 8394 ft | 165 kts | 281° |
| 2026-05-05 23:42 | 59.77010 | -141.23574 | 8393 ft | 165 kts | 281° |
| 2026-05-05 23:42 | 59.77350 | -141.25762 | 8394 ft | 165 kts | 281° |
| 2026-05-05 23:42 | 59.77689 | -141.27941 | 8395 ft | 165 kts | 281° |
| 2026-05-05 23:42 | 59.78028 | -141.30120 | 8394 ft | 165 kts | 281° |
| 2026-05-05 23:43 | 59.78363 | -141.32273 | 8394 ft | 165 kts | 281° |
| 2026-05-05 23:43 | 59.78699 | -141.34443 | 8392 ft | 165 kts | 281° |
| 2026-05-05 23:43 | 59.79034 | -141.36613 | 8390 ft | 164 kts | 281° |
| 2026-05-05 23:43 | 59.79373 | -141.38784 | 8393 ft | 164 kts | 281° |
| 2026-05-05 23:44 | 59.79707 | -141.40945 | 8393 ft | 164 kts | 281° |
| 2026-05-05 23:44 | 59.80038 | -141.43113 | 8394 ft | 164 kts | 281° |
| 2026-05-05 23:44 | 59.80373 | -141.45277 | 8394 ft | 164 kts | 281° |
| 2026-05-05 23:44 | 59.80708 | -141.47445 | 8393 ft | 164 kts | 281° |
| 2026-05-05 23:45 | 59.81043 | -141.49613 | 8392 ft | 164 kts | 280° |
| 2026-05-05 23:45 | 59.81368 | -141.51774 | 8391 ft | 163 kts | 280° |
| 2026-05-05 23:45 | 59.81702 | -141.53933 | 8391 ft | 163 kts | 281° |
| 2026-05-05 23:45 | 59.82037 | -141.56092 | 8390 ft | 163 kts | 281° |
| 2026-05-05 23:46 | 59.82365 | -141.58243 | 8391 ft | 163 kts | 281° |
| 2026-05-05 23:46 | 59.82693 | -141.60397 | 8390 ft | 163 kts | 280° |
| 2026-05-05 23:46 | 59.83022 | -141.62547 | 8391 ft | 162 kts | 281° |
| 2026-05-05 23:46 | 59.83350 | -141.64696 | 8390 ft | 162 kts | 281° |
| 2026-05-05 23:47 | 59.83677 | -141.66839 | 8393 ft | 162 kts | 281° |
| 2026-05-05 23:47 | 59.84001 | -141.68989 | 8393 ft | 162 kts | 281° |
| 2026-05-05 23:47 | 59.84326 | -141.71125 | 8388 ft | 162 kts | 281° |
| 2026-05-05 23:47 | 59.84644 | -141.73286 | 8376 ft | 163 kts | 280° |
| 2026-05-05 23:48 | 59.84987 | -141.75445 | 8380 ft | 164 kts | 278° |
| 2026-05-05 23:48 | 59.85324 | -141.77587 | 8373 ft | 164 kts | 275° |
| 2026-05-05 23:48 | 59.85633 | -141.79795 | 8374 ft | 164 kts | 276° |
| 2026-05-05 23:48 | 59.85954 | -141.81943 | 8378 ft | 165 kts | 282° |
| 2026-05-05 23:49 | 59.86301 | -141.84118 | 8376 ft | 165 kts | 276° |
| 2026-05-05 23:49 | 59.86613 | -141.86309 | 8377 ft | 165 kts | 278° |
| 2026-05-05 23:49 | 59.86948 | -141.88494 | 8377 ft | 166 kts | 277° |
| 2026-05-05 23:49 | 59.87267 | -141.90694 | 8382 ft | 165 kts | 276° |
| 2026-05-05 23:50 | 59.87490 | -141.92175 | 8375 ft | 166 kts | 279° |
| 2026-05-05 23:50 | 59.87847 | -141.94363 | 8376 ft | 165 kts | 278° |
| 2026-05-05 23:50 | 59.88141 | -141.96563 | 8370 ft | 165 kts | 277° |
| 2026-05-05 23:50 | 59.88477 | -141.98721 | 8368 ft | 165 kts | 278° |
| 2026-05-05 23:51 | 59.88806 | -142.00915 | 8370 ft | 165 kts | 279° |
| 2026-05-05 23:51 | 59.89134 | -142.03111 | 8370 ft | 165 kts | 279° |
| 2026-05-05 23:51 | 59.89466 | -142.05304 | 8370 ft | 164 kts | 279° |
| 2026-05-05 23:51 | 59.89785 | -142.07495 | 8369 ft | 165 kts | 280° |
| 2026-05-05 23:52 | 59.90108 | -142.09690 | 8372 ft | 165 kts | 282° |
| 2026-05-05 23:52 | 59.90435 | -142.11880 | 8372 ft | 166 kts | 279° |
| 2026-05-05 23:52 | 59.90765 | -142.14084 | 8365 ft | 166 kts | 276° |
| 2026-05-05 23:52 | 59.91082 | -142.16300 | 8366 ft | 167 kts | 276° |
| 2026-05-05 23:53 | 59.91397 | -142.18485 | 8374 ft | 167 kts | 281° |
| 2026-05-05 23:53 | 59.91727 | -142.20699 | 8368 ft | 166 kts | 279° |
| 2026-05-05 23:53 | 59.92079 | -142.22895 | 8369 ft | 167 kts | 280° |
| 2026-05-05 23:53 | 59.92401 | -142.25100 | 8364 ft | 164 kts | 273° |
| 2026-05-05 23:54 | 59.92692 | -142.27306 | 8364 ft | 165 kts | 279° |
| 2026-05-05 23:54 | 59.93034 | -142.29496 | 8363 ft | 165 kts | 277° |
| 2026-05-05 23:54 | 59.93347 | -142.31704 | 8363 ft | 165 kts | 278° |
| 2026-05-05 23:54 | 59.93673 | -142.33902 | 8368 ft | 166 kts | 282° |
| 2026-05-05 23:55 | 59.94007 | -142.36093 | 8360 ft | 165 kts | 275° |
| 2026-05-05 23:55 | 59.94285 | -142.38293 | 8363 ft | 165 kts | 278° |
| 2026-05-05 23:55 | 59.94632 | -142.40486 | 8363 ft | 166 kts | 278° |
| 2026-05-05 23:55 | 59.94958 | -142.42680 | 8363 ft | 165 kts | 277° |
| 2026-05-05 23:56 | 59.95277 | -142.44882 | 8362 ft | 165 kts | 277° |
| 2026-05-05 23:56 | 59.95593 | -142.47082 | 8356 ft | 165 kts | 277° |
| 2026-05-05 23:56 | 59.95905 | -142.49285 | 8358 ft | 165 kts | 279° |
| 2026-05-05 23:56 | 59.96233 | -142.51478 | 8354 ft | 165 kts | 278° |
| 2026-05-05 23:57 | 59.96557 | -142.53676 | 8353 ft | 165 kts | 276° |
| 2026-05-05 23:57 | 59.96864 | -142.55851 | 8357 ft | 164 kts | 277° |
| 2026-05-05 23:57 | 59.97173 | -142.58049 | 8353 ft | 165 kts | 278° |
| 2026-05-05 23:57 | 59.97494 | -142.60245 | 8352 ft | 164 kts | 278° |
| 2026-05-05 23:58 | 59.97812 | -142.62434 | 8356 ft | 163 kts | 275° |
| 2026-05-05 23:58 | 59.98119 | -142.64620 | 8346 ft | 164 kts | 279° |
| 2026-05-05 23:58 | 59.98442 | -142.66806 | 8349 ft | 162 kts | 275° |
| 2026-05-05 23:58 | 59.98743 | -142.68975 | 8351 ft | 162 kts | 277° |
| 2026-05-05 23:59 | 59.99064 | -142.71137 | 8349 ft | 162 kts | 277° |
| 2026-05-05 23:59 | 59.99368 | -142.73307 | 8350 ft | 163 kts | 276° |
| 2026-05-05 23:59 | 59.99673 | -142.75487 | 8352 ft | 163 kts | 277° |
| 2026-05-05 23:59 | 59.99985 | -142.77671 | 8346 ft | 164 kts | 276° |
| 2026-05-06 00:00 | 60.00293 | -142.79859 | 8348 ft | 163 kts | 281° |
| 2026-05-06 00:00 | 60.00613 | -142.82037 | 8350 ft | 163 kts | 277° |
| 2026-05-06 00:00 | 60.00917 | -142.84208 | 8351 ft | 162 kts | 276° |
| 2026-05-06 00:00 | 60.01217 | -142.86364 | 8351 ft | 163 kts | 278° |
| 2026-05-06 00:01 | 60.01530 | -142.88552 | 8350 ft | 163 kts | 278° |
| 2026-05-06 00:01 | 60.01836 | -142.90710 | 8349 ft | 163 kts | 278° |
| 2026-05-06 00:01 | 60.02145 | -142.92896 | 8347 ft | 164 kts | 278° |
| 2026-05-06 00:01 | 60.02452 | -142.95090 | 8351 ft | 164 kts | 277° |
| 2026-05-06 00:02 | 60.02760 | -142.97280 | 8351 ft | 164 kts | 276° |
| 2026-05-06 00:02 | 60.03062 | -142.99464 | 8351 ft | 164 kts | 278° |
| 2026-05-06 00:02 | 60.03372 | -143.01657 | 8350 ft | 164 kts | 277° |
| 2026-05-06 00:02 | 60.03682 | -143.03851 | 8364 ft | 164 kts | 272° |
| 2026-05-06 00:03 | 60.03979 | -143.06035 | 8345 ft | 165 kts | 276° |
| 2026-05-06 00:03 | 60.04294 | -143.08246 | 8347 ft | 165 kts | 278° |
| 2026-05-06 00:03 | 60.04601 | -143.10451 | 8343 ft | 165 kts | 276° |
| 2026-05-06 00:03 | 60.04914 | -143.12661 | 8349 ft | 165 kts | 279° |
| 2026-05-06 00:04 | 60.05235 | -143.14871 | 8347 ft | 165 kts | 275° |
| 2026-05-06 00:04 | 60.05510 | -143.17082 | 8351 ft | 164 kts | 277° |
| 2026-05-06 00:04 | 60.05831 | -143.19273 | 8351 ft | 164 kts | 278° |
| 2026-05-06 00:04 | 60.06141 | -143.21471 | 8352 ft | 164 kts | 276° |
| 2026-05-06 00:05 | 60.06760 | -143.25891 | 8336 ft | 165 kts | 274° |
| 2026-05-06 00:05 | 60.07051 | -143.28109 | 8343 ft | 164 kts | 273° |
| 2026-05-06 00:05 | 60.07347 | -143.30333 | 8337 ft | 165 kts | 277° |
| 2026-05-06 00:06 | 60.07672 | -143.32545 | 8339 ft | 165 kts | 275° |
| 2026-05-06 00:06 | 60.07975 | -143.34778 | 8336 ft | 167 kts | 275° |
| 2026-05-06 00:06 | 60.08277 | -143.37019 | 8335 ft | 167 kts | 275° |
| 2026-05-06 00:06 | 60.08578 | -143.39229 | 8336 ft | 167 kts | 275° |
| 2026-05-06 00:07 | 60.08882 | -143.41504 | 8337 ft | 167 kts | 279° |
| 2026-05-06 00:07 | 60.09188 | -143.43713 | 8336 ft | 167 kts | 279° |
| 2026-05-06 00:07 | 60.09513 | -143.45951 | 8331 ft | 167 kts | 275° |
| 2026-05-06 00:07 | 60.09808 | -143.48197 | 8328 ft | 167 kts | 276° |
| 2026-05-06 00:08 | 60.10095 | -143.50441 | 8335 ft | 166 kts | 277° |
| 2026-05-06 00:08 | 60.10404 | -143.52672 | 8336 ft | 167 kts | 277° |
| 2026-05-06 00:08 | 60.10720 | -143.54911 | 8336 ft | 166 kts | 277° |
| 2026-05-06 00:08 | 60.11021 | -143.57145 | 8327 ft | 166 kts | 276° |
| 2026-05-06 00:09 | 60.11332 | -143.59388 | 8331 ft | 166 kts | 276° |
| 2026-05-06 00:09 | 60.11618 | -143.61634 | 8330 ft | 166 kts | 274° |
| 2026-05-06 00:09 | 60.11926 | -143.63887 | 8331 ft | 168 kts | 277° |
| 2026-05-06 00:09 | 60.12244 | -143.66141 | 8331 ft | 168 kts | 275° |
| 2026-05-06 00:10 | 60.12528 | -143.68414 | 8332 ft | 168 kts | 277° |
| 2026-05-06 00:10 | 60.12847 | -143.70640 | 8328 ft | 167 kts | 276° |
| 2026-05-06 00:10 | 60.13143 | -143.72885 | 8328 ft | 166 kts | 275° |
| 2026-05-06 00:10 | 60.13416 | -143.75121 | 8330 ft | 165 kts | 276° |
| 2026-05-06 00:11 | 60.13733 | -143.77330 | 8329 ft | 166 kts | 279° |
| 2026-05-06 00:11 | 60.14064 | -143.79540 | 8326 ft | 165 kts | 277° |
| 2026-05-06 00:11 | 60.14323 | -143.81755 | 8334 ft | 163 kts | 278° |
| 2026-05-06 00:11 | 60.14613 | -143.83958 | 8321 ft | 162 kts | 275° |
| 2026-05-06 00:12 | 60.14898 | -143.86143 | 8325 ft | 162 kts | 277° |
| 2026-05-06 00:12 | 60.15196 | -143.88334 | 8322 ft | 162 kts | 276° |
| 2026-05-06 00:12 | 60.15493 | -143.90478 | 8321 ft | 162 kts | 276° |
| 2026-05-06 00:12 | 60.15785 | -143.92675 | 8323 ft | 161 kts | 274° |
| 2026-05-06 00:13 | 60.16059 | -143.94821 | 8321 ft | 161 kts | 275° |
| 2026-05-06 00:13 | 60.16347 | -143.96994 | 8326 ft | 161 kts | 276° |
| 2026-05-06 00:13 | 60.16643 | -143.99163 | 8321 ft | 161 kts | 275° |
| 2026-05-06 00:13 | 60.16915 | -144.01328 | 8319 ft | 160 kts | 274° |
| 2026-05-06 00:14 | 60.17190 | -144.03502 | 8320 ft | 161 kts | 274° |
| 2026-05-06 00:14 | 60.17475 | -144.05695 | 8323 ft | 162 kts | 277° |
| 2026-05-06 00:14 | 60.17769 | -144.07876 | 8324 ft | 161 kts | 273° |
| 2026-05-06 00:14 | 60.18054 | -144.10061 | 8326 ft | 162 kts | 276° |
| 2026-05-06 00:15 | 60.18357 | -144.12240 | 8322 ft | 162 kts | 275° |
| 2026-05-06 00:15 | 60.18622 | -144.14410 | 8323 ft | 161 kts | 273° |
| 2026-05-06 00:15 | 60.18904 | -144.16604 | 8324 ft | 163 kts | 277° |
| 2026-05-06 00:15 | 60.19202 | -144.18796 | 8324 ft | 162 kts | 276° |
| 2026-05-06 00:16 | 60.19485 | -144.20985 | 8325 ft | 163 kts | 276° |
| 2026-05-06 00:16 | 60.19688 | -144.23183 | 8295 ft | 143 kts | 250° |
| 2026-05-06 00:16 | 60.19917 | -144.25231 | 8331 ft | 160 kts | 280° |
| 2026-05-06 00:16 | 60.20271 | -144.27362 | 8306 ft | 160 kts | 274° |
| 2026-05-06 00:17 | 60.20568 | -144.29505 | 8326 ft | 160 kts | 275° |
| 2026-05-06 00:17 | 60.20861 | -144.31698 | 8323 ft | 163 kts | 274° |
| 2026-05-06 00:17 | 60.21160 | -144.33894 | 8300 ft | 164 kts | 277° |
| 2026-05-06 00:17 | 60.21442 | -144.36118 | 8336 ft | 165 kts | 273° |
| 2026-05-06 00:18 | 60.21723 | -144.38399 | 8318 ft | 171 kts | 276° |
| 2026-05-06 00:18 | 60.21991 | -144.40744 | 8274 ft | 175 kts | 275° |
| 2026-05-06 00:18 | 60.22308 | -144.43077 | 8318 ft | 175 kts | 274° |
| 2026-05-06 00:18 | 60.21968 | -144.44516 | 7347 ft | 111 kts | 129° |
| 2026-05-06 00:19 | 60.21791 | -144.42323 | 7223 ft | 143 kts | 75° |
| 2026-05-06 00:19 | 60.22135 | -144.40752 | 7422 ft | 116 kts | 83° |
| 2026-05-06 00:19 | 60.21963 | -144.39090 | 7227 ft | 138 kts | 141° |
| 2026-05-06 00:19 | 60.21115 | -144.39390 | 7032 ft | 147 kts | 245° |
| 2026-05-06 00:20 | 60.21198 | -144.41223 | 7283 ft | 137 kts | 304° |
| 2026-05-06 00:20 | 60.21861 | -144.42489 | 7571 ft | 127 kts | 321° |
| 2026-05-06 00:20 | 60.22541 | -144.43806 | 7580 ft | 140 kts | 291° |
| 2026-05-06 00:20 | 60.22717 | -144.45596 | 7911 ft | 129 kts | 277° |
| 2026-05-06 00:21 | 60.22853 | -144.47349 | 8189 ft | 124 kts | 282° |
| 2026-05-06 00:21 | 60.23069 | -144.48992 | 8415 ft | 122 kts | 286° |
| 2026-05-06 00:21 | 60.23309 | -144.50798 | 8408 ft | 142 kts | 285° |
| 2026-05-06 00:21 | 60.23567 | -144.52794 | 8411 ft | 155 kts | 284° |
| 2026-05-06 00:22 | 60.23845 | -144.54958 | 8411 ft | 165 kts | 284° |
| 2026-05-06 00:22 | 60.24139 | -144.57253 | 8411 ft | 171 kts | 284° |
| 2026-05-06 00:22 | 60.24434 | -144.59582 | 8413 ft | 174 kts | 284° |
| 2026-05-06 00:22 | 60.24737 | -144.61984 | 8411 ft | 177 kts | 284° |
| 2026-05-06 00:23 | 60.25043 | -144.64398 | 8410 ft | 179 kts | 284° |
| 2026-05-06 00:23 | 60.25347 | -144.66811 | 8410 ft | 180 kts | 284° |
| 2026-05-06 00:23 | 60.25655 | -144.69267 | 8410 ft | 181 kts | 284° |
| 2026-05-06 00:23 | 60.25965 | -144.71736 | 8411 ft | 181 kts | 284° |
| 2026-05-06 00:24 | 60.26270 | -144.74174 | 8411 ft | 181 kts | 284° |
| 2026-05-06 00:24 | 60.26577 | -144.76620 | 8412 ft | 181 kts | 284° |
| 2026-05-06 00:24 | 60.26886 | -144.79097 | 8412 ft | 181 kts | 284° |
| 2026-05-06 00:24 | 60.27191 | -144.81544 | 8412 ft | 181 kts | 284° |
| 2026-05-06 00:25 | 60.27501 | -144.84030 | 8412 ft | 181 kts | 284° |
| 2026-05-06 00:25 | 60.27805 | -144.86479 | 8413 ft | 181 kts | 284° |
| 2026-05-06 00:25 | 60.28108 | -144.88938 | 8413 ft | 181 kts | 283° |
| 2026-05-06 00:25 | 60.28411 | -144.91426 | 8412 ft | 182 kts | 284° |
| 2026-05-06 00:26 | 60.28725 | -144.93875 | 8411 ft | 182 kts | 284° |
| 2026-05-06 00:26 | 60.29034 | -144.96362 | 8410 ft | 182 kts | 284° |
| 2026-05-06 00:26 | 60.29338 | -144.98846 | 8411 ft | 182 kts | 284° |
| 2026-05-06 00:26 | 60.29640 | -145.01314 | 8411 ft | 182 kts | 284° |
| 2026-05-06 00:27 | 60.29942 | -145.03772 | 8411 ft | 182 kts | 284° |
| 2026-05-06 00:27 | 60.30248 | -145.06268 | 8411 ft | 182 kts | 284° |
| 2026-05-06 00:27 | 60.30550 | -145.08739 | 8412 ft | 182 kts | 284° |
| 2026-05-06 00:27 | 60.30855 | -145.11225 | 8413 ft | 182 kts | 283° |
| 2026-05-06 00:28 | 60.31155 | -145.13688 | 8413 ft | 182 kts | 283° |
| 2026-05-06 00:28 | 60.31459 | -145.16185 | 8411 ft | 182 kts | 284° |
| 2026-05-06 00:28 | 60.31760 | -145.18655 | 8413 ft | 183 kts | 283° |
| 2026-05-06 00:28 | 60.32064 | -145.21161 | 8411 ft | 183 kts | 284° |
| 2026-05-06 00:29 | 60.32364 | -145.23631 | 8412 ft | 183 kts | 283° |
| 2026-05-06 00:29 | 60.32666 | -145.26135 | 8412 ft | 183 kts | 283° |
| 2026-05-06 00:29 | 60.32965 | -145.28604 | 8411 ft | 183 kts | 283° |
| 2026-05-06 00:29 | 60.33268 | -145.31113 | 8411 ft | 183 kts | 283° |
| 2026-05-06 00:30 | 60.33569 | -145.33616 | 8411 ft | 183 kts | 283° |
| 2026-05-06 00:30 | 60.33865 | -145.36083 | 8411 ft | 183 kts | 283° |
| 2026-05-06 00:30 | 60.34165 | -145.38584 | 8411 ft | 182 kts | 283° |
| 2026-05-06 00:30 | 60.34465 | -145.41085 | 8411 ft | 182 kts | 283° |
| 2026-05-06 00:31 | 60.34761 | -145.43560 | 8411 ft | 182 kts | 283° |
| 2026-05-06 00:31 | 60.35060 | -145.46067 | 8411 ft | 182 kts | 283° |
| 2026-05-06 00:31 | 60.35353 | -145.48529 | 8412 ft | 182 kts | 283° |
| 2026-05-06 00:31 | 60.35651 | -145.51034 | 8412 ft | 182 kts | 283° |
| 2026-05-06 00:32 | 60.35945 | -145.53508 | 8412 ft | 183 kts | 283° |
| 2026-05-06 00:32 | 60.36244 | -145.56028 | 8412 ft | 183 kts | 283° |
| 2026-05-06 00:32 | 60.36536 | -145.58499 | 8412 ft | 183 kts | 283° |
| 2026-05-06 00:32 | 60.36832 | -145.61010 | 8412 ft | 183 kts | 283° |
| 2026-05-06 00:33 | 60.37125 | -145.63492 | 8413 ft | 183 kts | 283° |
| 2026-05-06 00:33 | 60.37420 | -145.65999 | 8413 ft | 183 kts | 283° |
| 2026-05-06 00:33 | 60.37715 | -145.68507 | 8413 ft | 183 kts | 283° |
| 2026-05-06 00:33 | 60.38003 | -145.70967 | 8413 ft | 183 kts | 283° |
| 2026-05-06 00:34 | 60.38296 | -145.73469 | 8411 ft | 183 kts | 283° |
| 2026-05-06 00:34 | 60.38589 | -145.75981 | 8411 ft | 183 kts | 283° |
| 2026-05-06 00:34 | 60.38879 | -145.78468 | 8408 ft | 183 kts | 283° |
| 2026-05-06 00:34 | 60.39172 | -145.80981 | 8408 ft | 183 kts | 283° |
| 2026-05-06 00:35 | 60.39463 | -145.83486 | 8408 ft | 183 kts | 283° |
| 2026-05-06 00:35 | 60.39753 | -145.85990 | 8408 ft | 183 kts | 283° |
| 2026-05-06 00:35 | 60.40043 | -145.88495 | 8408 ft | 183 kts | 283° |
| 2026-05-06 00:35 | 60.40333 | -145.91007 | 8408 ft | 183 kts | 283° |
| 2026-05-06 00:36 | 60.40623 | -145.93515 | 8408 ft | 183 kts | 283° |
| 2026-05-06 00:36 | 60.40912 | -145.96023 | 8409 ft | 183 kts | 283° |
| 2026-05-06 00:36 | 60.41200 | -145.98531 | 8409 ft | 183 kts | 283° |
| 2026-05-06 00:36 | 60.41488 | -146.01045 | 8409 ft | 183 kts | 283° |
| 2026-05-06 00:37 | 60.41776 | -146.03557 | 8409 ft | 183 kts | 283° |
| 2026-05-06 00:37 | 60.42064 | -146.06070 | 8409 ft | 183 kts | 283° |
| 2026-05-06 00:37 | 60.42254 | -146.07741 | 8410 ft | 183 kts | 283° |
| 2026-05-06 00:37 | 60.42541 | -146.10259 | 8410 ft | 183 kts | 283° |
| 2026-05-06 00:38 | 60.42828 | -146.12774 | 8410 ft | 183 kts | 283° |
| 2026-05-06 00:38 | 60.43116 | -146.15306 | 8410 ft | 183 kts | 283° |
| 2026-05-06 00:38 | 60.43492 | -146.18629 | 8410 ft | 183 kts | 283° |
| 2026-05-06 00:38 | 60.43685 | -146.20332 | 8410 ft | 183 kts | 283° |
| 2026-05-06 00:39 | 60.43968 | -146.22850 | 8410 ft | 183 kts | 283° |
| 2026-05-06 00:39 | 60.44253 | -146.25369 | 8411 ft | 183 kts | 283° |
| 2026-05-06 00:39 | 60.44536 | -146.27884 | 8411 ft | 183 kts | 283° |
| 2026-05-06 00:39 | 60.44815 | -146.30370 | 8411 ft | 183 kts | 283° |
| 2026-05-06 00:40 | 60.45100 | -146.32916 | 8411 ft | 183 kts | 282° |
| 2026-05-06 00:40 | 60.45379 | -146.35409 | 8411 ft | 183 kts | 283° |
| 2026-05-06 00:40 | 60.45661 | -146.37929 | 8411 ft | 183 kts | 283° |
| 2026-05-06 00:40 | 60.45942 | -146.40451 | 8411 ft | 183 kts | 282° |
| 2026-05-06 00:41 | 60.46223 | -146.42972 | 8412 ft | 183 kts | 282° |
| 2026-05-06 00:41 | 60.46503 | -146.45498 | 8412 ft | 184 kts | 282° |
| 2026-05-06 00:41 | 60.46783 | -146.48026 | 8412 ft | 184 kts | 282° |
| 2026-05-06 00:41 | 60.47062 | -146.50546 | 8412 ft | 183 kts | 282° |
| 2026-05-06 00:42 | 60.47341 | -146.53070 | 8412 ft | 183 kts | 282° |
| 2026-05-06 00:42 | 60.47620 | -146.55598 | 8412 ft | 183 kts | 282° |
| 2026-05-06 00:42 | 60.47898 | -146.58118 | 8412 ft | 183 kts | 282° |
| 2026-05-06 00:42 | 60.47994 | -146.60685 | 8409 ft | 184 kts | 263° |
| 2026-05-06 00:43 | 60.47727 | -146.63215 | 8410 ft | 184 kts | 257° |
| 2026-05-06 00:43 | 60.47442 | -146.65734 | 8411 ft | 184 kts | 257° |
| 2026-05-06 00:43 | 60.47155 | -146.68255 | 8411 ft | 184 kts | 257° |
| 2026-05-06 00:43 | 60.46867 | -146.70778 | 8411 ft | 184 kts | 257° |
| 2026-05-06 00:44 | 60.46580 | -146.73297 | 8411 ft | 184 kts | 257° |
| 2026-05-06 00:44 | 60.46293 | -146.75819 | 8411 ft | 184 kts | 257° |
| 2026-05-06 00:44 | 60.46005 | -146.78341 | 8411 ft | 184 kts | 257° |
| 2026-05-06 00:44 | 60.45717 | -146.80859 | 8411 ft | 184 kts | 257° |
| 2026-05-06 00:45 | 60.45428 | -146.83379 | 8411 ft | 184 kts | 257° |
| 2026-05-06 00:45 | 60.45139 | -146.85896 | 8411 ft | 184 kts | 257° |
| 2026-05-06 00:45 | 60.44849 | -146.88416 | 8412 ft | 184 kts | 257° |
| 2026-05-06 00:45 | 60.44558 | -146.90936 | 8412 ft | 184 kts | 257° |
| 2026-05-06 00:46 | 60.44272 | -146.93418 | 8412 ft | 184 kts | 257° |
| 2026-05-06 00:46 | 60.43981 | -146.95938 | 8412 ft | 184 kts | 257° |
| 2026-05-06 00:46 | 60.43689 | -146.98456 | 8412 ft | 184 kts | 257° |
| 2026-05-06 00:46 | 60.43396 | -147.00975 | 8412 ft | 184 kts | 257° |
| 2026-05-06 00:47 | 60.43104 | -147.03493 | 8412 ft | 184 kts | 257° |
| 2026-05-06 00:47 | 60.42810 | -147.06012 | 8413 ft | 184 kts | 257° |
| 2026-05-06 00:47 | 60.42517 | -147.08524 | 8413 ft | 184 kts | 257° |
| 2026-05-06 00:47 | 60.42222 | -147.11040 | 8413 ft | 184 kts | 257° |
| 2026-05-06 00:48 | 60.41927 | -147.13562 | 8413 ft | 184 kts | 257° |
| 2026-05-06 00:48 | 60.41631 | -147.16081 | 8413 ft | 184 kts | 257° |
| 2026-05-06 00:48 | 60.41336 | -147.18599 | 8413 ft | 184 kts | 257° |
| 2026-05-06 00:48 | 60.41040 | -147.21108 | 8413 ft | 184 kts | 257° |
| 2026-05-06 00:49 | 60.40743 | -147.23624 | 8412 ft | 184 kts | 257° |
| 2026-05-06 00:49 | 60.40446 | -147.26143 | 8412 ft | 184 kts | 257° |
| 2026-05-06 00:49 | 60.40148 | -147.28659 | 8412 ft | 184 kts | 257° |
| 2026-05-06 00:49 | 60.39850 | -147.31172 | 8412 ft | 184 kts | 257° |
| 2026-05-06 00:50 | 60.39552 | -147.33686 | 8412 ft | 184 kts | 256° |
| 2026-05-06 00:50 | 60.39253 | -147.36193 | 8412 ft | 184 kts | 256° |
| 2026-05-06 00:50 | 60.38957 | -147.38670 | 8412 ft | 184 kts | 256° |
| 2026-05-06 00:50 | 60.38657 | -147.41183 | 8413 ft | 184 kts | 256° |
| 2026-05-06 00:51 | 60.38358 | -147.43687 | 8412 ft | 184 kts | 256° |
| 2026-05-06 00:51 | 60.38057 | -147.46199 | 8412 ft | 184 kts | 256° |
| 2026-05-06 00:51 | 60.37755 | -147.48710 | 8413 ft | 184 kts | 256° |
| 2026-05-06 00:51 | 60.37453 | -147.51222 | 8412 ft | 184 kts | 256° |
| 2026-05-06 00:52 | 60.37151 | -147.53730 | 8412 ft | 184 kts | 256° |
| 2026-05-06 00:52 | 60.36848 | -147.56236 | 8413 ft | 184 kts | 256° |
| 2026-05-06 00:52 | 60.36545 | -147.58746 | 8413 ft | 184 kts | 256° |
| 2026-05-06 00:52 | 60.36241 | -147.61250 | 8412 ft | 184 kts | 256° |
| 2026-05-06 00:53 | 60.35938 | -147.63757 | 8412 ft | 184 kts | 256° |
| 2026-05-06 00:53 | 60.35631 | -147.66274 | 8407 ft | 185 kts | 256° |
| 2026-05-06 00:53 | 60.35323 | -147.68805 | 8408 ft | 185 kts | 256° |
| 2026-05-06 00:53 | 60.35017 | -147.71318 | 8407 ft | 184 kts | 256° |
| 2026-05-06 00:54 | 60.34713 | -147.73806 | 8409 ft | 185 kts | 256° |
| 2026-05-06 00:54 | 60.34404 | -147.76325 | 8408 ft | 185 kts | 256° |
| 2026-05-06 00:54 | 60.34094 | -147.78851 | 8408 ft | 185 kts | 256° |
| 2026-05-06 00:54 | 60.33786 | -147.81372 | 8407 ft | 185 kts | 256° |
| 2026-05-06 00:55 | 60.33476 | -147.83888 | 8408 ft | 185 kts | 256° |
| 2026-05-06 00:55 | 60.33165 | -147.86403 | 8407 ft | 184 kts | 256° |
| 2026-05-06 00:55 | 60.32855 | -147.88916 | 8407 ft | 184 kts | 256° |
| 2026-05-06 00:55 | 60.32546 | -147.91421 | 8407 ft | 184 kts | 256° |
| 2026-05-06 00:56 | 60.32235 | -147.93927 | 8407 ft | 184 kts | 256° |
| 2026-05-06 00:56 | 60.31924 | -147.96431 | 8407 ft | 184 kts | 256° |
| 2026-05-06 00:56 | 60.31613 | -147.98936 | 8407 ft | 184 kts | 256° |
| 2026-05-06 00:56 | 60.31302 | -148.01433 | 8407 ft | 184 kts | 256° |
| 2026-05-06 00:57 | 60.30990 | -148.03933 | 8407 ft | 184 kts | 256° |
| 2026-05-06 00:57 | 60.30677 | -148.06436 | 8408 ft | 184 kts | 256° |
| 2026-05-06 00:57 | 60.30364 | -148.08948 | 8408 ft | 185 kts | 256° |
| 2026-05-06 00:57 | 60.30047 | -148.11466 | 8409 ft | 185 kts | 256° |
| 2026-05-06 00:58 | 60.29731 | -148.13984 | 8408 ft | 185 kts | 256° |
| 2026-05-06 00:58 | 60.29416 | -148.16494 | 8407 ft | 184 kts | 256° |
| 2026-05-06 00:58 | 60.29104 | -148.18968 | 8407 ft | 184 kts | 256° |
| 2026-05-06 00:58 | 60.28788 | -148.21472 | 8407 ft | 184 kts | 256° |
| 2026-05-06 00:59 | 60.28472 | -148.23970 | 8407 ft | 184 kts | 256° |
| 2026-05-06 00:59 | 60.28156 | -148.26469 | 8406 ft | 184 kts | 256° |
| 2026-05-06 00:59 | 60.27839 | -148.28960 | 8409 ft | 184 kts | 256° |
| 2026-05-06 00:59 | 60.27522 | -148.31459 | 8406 ft | 184 kts | 256° |
| 2026-05-06 01:00 | 60.27204 | -148.33971 | 8408 ft | 185 kts | 256° |
| 2026-05-06 01:00 | 60.26884 | -148.36476 | 8407 ft | 185 kts | 256° |
| 2026-05-06 01:00 | 60.26567 | -148.38944 | 8407 ft | 184 kts | 256° |
| 2026-05-06 01:00 | 60.26246 | -148.41457 | 8406 ft | 184 kts | 256° |
| 2026-05-06 01:01 | 60.25928 | -148.43934 | 8407 ft | 184 kts | 256° |
| 2026-05-06 01:01 | 60.25607 | -148.46445 | 8407 ft | 184 kts | 256° |
| 2026-05-06 01:01 | 60.25288 | -148.48922 | 8407 ft | 184 kts | 256° |
| 2026-05-06 01:01 | 60.24966 | -148.51429 | 8406 ft | 184 kts | 256° |
| 2026-05-06 01:02 | 60.24642 | -148.53937 | 8406 ft | 184 kts | 255° |
| 2026-05-06 01:02 | 60.24323 | -148.56407 | 8406 ft | 185 kts | 255° |
| 2026-05-06 01:02 | 60.23999 | -148.58913 | 8407 ft | 185 kts | 255° |
| 2026-05-06 01:02 | 60.23675 | -148.61416 | 8406 ft | 185 kts | 255° |
| 2026-05-06 01:03 | 60.23350 | -148.63920 | 8406 ft | 185 kts | 255° |
| 2026-05-06 01:03 | 60.23023 | -148.66428 | 8407 ft | 185 kts | 255° |
| 2026-05-06 01:03 | 60.22697 | -148.68931 | 8406 ft | 185 kts | 255° |
| 2026-05-06 01:03 | 60.22370 | -148.71437 | 8407 ft | 186 kts | 255° |
| 2026-05-06 01:04 | 60.22042 | -148.73951 | 8406 ft | 186 kts | 255° |
| 2026-05-06 01:04 | 60.21713 | -148.76463 | 8406 ft | 186 kts | 255° |
| 2026-05-06 01:04 | 60.21384 | -148.78973 | 8406 ft | 186 kts | 255° |
| 2026-05-06 01:04 | 60.21054 | -148.81490 | 8407 ft | 186 kts | 255° |
| 2026-05-06 01:05 | 60.20722 | -148.84012 | 8407 ft | 187 kts | 255° |
| 2026-05-06 01:05 | 60.20389 | -148.86533 | 8409 ft | 187 kts | 255° |
| 2026-05-06 01:05 | 60.20057 | -148.89052 | 8407 ft | 186 kts | 255° |
| 2026-05-06 01:05 | 60.19725 | -148.91566 | 8407 ft | 186 kts | 255° |
| 2026-05-06 01:06 | 60.19391 | -148.94079 | 8408 ft | 186 kts | 255° |
| 2026-05-06 01:06 | 60.19060 | -148.96573 | 8405 ft | 186 kts | 255° |
| 2026-05-06 01:06 | 60.18729 | -148.99077 | 8407 ft | 186 kts | 255° |
| 2026-05-06 01:06 | 60.18395 | -149.01596 | 8382 ft | 188 kts | 255° |
| 2026-05-06 01:07 | 60.18024 | -149.04370 | 8103 ft | 190 kts | 255° |
| 2026-05-06 01:07 | 60.17682 | -149.06926 | 7853 ft | 189 kts | 255° |
| 2026-05-06 01:07 | 60.17110 | -149.09274 | 7601 ft | 188 kts | 236° |
| 2026-05-06 01:07 | 60.16340 | -149.11386 | 7351 ft | 187 kts | 233° |
| 2026-05-06 01:08 | 60.15547 | -149.13458 | 7101 ft | 187 kts | 233° |
| 2026-05-06 01:08 | 60.14753 | -149.15522 | 6854 ft | 187 kts | 232° |
| 2026-05-06 01:08 | 60.13961 | -149.17579 | 6603 ft | 186 kts | 232° |
| 2026-05-06 01:08 | 60.13169 | -149.19629 | 6350 ft | 183 kts | 233° |
| 2026-05-06 01:09 | 60.12413 | -149.21598 | 6098 ft | 174 kts | 232° |
| 2026-05-06 01:09 | 60.11682 | -149.23495 | 5846 ft | 169 kts | 232° |
| 2026-05-06 01:09 | 60.10972 | -149.25360 | 5530 ft | 170 kts | 234° |
| 2026-05-06 01:09 | 60.10254 | -149.27263 | 5173 ft | 168 kts | 232° |
| 2026-05-06 01:10 | 60.09552 | -149.29057 | 4789 ft | 159 kts | 232° |
| 2026-05-06 01:10 | 60.08836 | -149.30694 | 4405 ft | 155 kts | 217° |
| 2026-05-06 01:10 | 60.07810 | -149.31238 | 4033 ft | 156 kts | 180° |
| 2026-05-06 01:10 | 60.06740 | -149.31239 | 3636 ft | 153 kts | 193° |
| 2026-05-06 01:11 | 60.05909 | -149.32411 | 3251 ft | 150 kts | 236° |
| 2026-05-06 01:11 | 60.05707 | -149.34404 | 2864 ft | 150 kts | 279° |
| 2026-05-06 01:11 | 60.06246 | -149.36126 | 2476 ft | 149 kts | 321° |
| 2026-05-06 01:11 | 60.07210 | -149.36838 | 2146 ft | 146 kts | 347° |
| 2026-05-06 01:12 | 60.08174 | -149.37247 | 1908 ft | 139 kts | 347° |
| 2026-05-06 01:12 | 60.09059 | -149.37613 | 1665 ft | 117 kts | 347° |
| 2026-05-06 01:12 | 60.09801 | -149.37961 | 1336 ft | 110 kts | 341° |
| 2026-05-06 01:12 | 60.10519 | -149.38561 | 1025 ft | 112 kts | 332° |
| 2026-05-06 01:13 | 60.11225 | -149.39262 | 699 ft | 113 kts | 331° |
| 2026-05-06 01:13 | 60.11866 | -149.40051 | 323 ft | 106 kts | 327° |
| 2026-05-06 01:13 | 60.12459 | -149.40808 | 86 ft | 95 kts | 326° |
| 2026-05-06 01:13 | 60.12898 | -149.41390 | 59 ft | 57 kts | 326° |
| 2026-05-06 01:14 | 60.13340 | -149.41987 | 61 ft | 26 kts | 327° |
| 2026-05-06 01:14 | 60.13430 | -149.42108 | 63 ft | 21 kts | 326° |
| 2026-05-06 01:14 | 60.13465 | -149.42276 | 66 ft | 13 kts | 212° |
| 2026-05-06 01:15 | 60.13402 | -149.42260 | 66 ft | 9 kts | 139° |
| 2026-05-06 01:15 | 60.13304 | -149.42184 | 65 ft | 17 kts | 176° |
| 2026-05-06 01:15 | 60.13207 | -149.42217 | 62 ft | 5 kts | 173° |
| 2026-05-06 01:15 | 60.13206 | -149.42216 | 62 ft | 0 kts | 178° |